Mare Frisium — PCBM — position and weather

sailwx.info

Track history (hours):
 
Tides and Currents Weather Stations Pressure Air Temp Water Temp Dewpoint Dewpoint Depression Visibility Wind Speed Wind Dir Waves Ship Positions

Mare Frisium (Netherlands)

Ship's website: http://www.tallship-company.com/mare-frisium-2/

Last reported at 2017-Sep-22 01:59 UTC. Time now 2017-Sep-22 15:30 UTC.
Position N 53°33' E 009°59'.

Length 50 m; draft 2.7 m.

Type: Sailing vessel. MMSI: 244596000.

Date/timePositionNaut miles runAvg speedWind from/ knotsBaromVisibWave heightAir tempDewpointWater temp
2017-Sep-22 01:59N 53°33' E 009°59'0 0.0
2017-Sep-22 01:29N 53°33' E 009°59'0 0.0
2017-Sep-22 00:59N 53°33' E 009°59'0 0.0
2017-Sep-22 00:29N 53°33' E 009°59'0 0.0
2017-Sep-21 23:59N 53°33' E 009°59'0 0.0
2017-Sep-21 23:29N 53°33' E 009°59'0 0.0
2017-Sep-21 22:59N 53°33' E 009°59'0 0.0
2017-Sep-21 22:29N 53°33' E 009°59'0 0.0
2017-Sep-21 21:59N 53°33' E 009°59'0 0.0
2017-Sep-21 21:29N 53°33' E 009°59'0 0.0
2017-Sep-21 21:00N 53°33' E 009°59'1 1.3
2017-Sep-21 20:30N 53°33' E 009°58'2 4.3
2017-Sep-21 20:01N 53°32' E 009°54'2 4.7
2017-Sep-21 19:30N 53°33' E 009°50'2 4.1
2017-Sep-21 19:01N 53°33' E 009°47'2 3.8
2017-Sep-21 18:30N 53°34' E 009°44'2 3.1
2017-Sep-21 18:01N 53°34' E 009°46'3 6.4
2017-Sep-21 17:30N 53°33' E 009°52'3 5.6
2017-Sep-21 17:00N 53°33' E 009°56'2 3.1
2017-Sep-21 16:30N 53°33' E 009°59'0 0.0
2017-Sep-21 16:00N 53°33' E 009°59'0 0.0
2017-Sep-21 15:28N 53°33' E 009°59'0 0.0
2017-Sep-21 14:58N 53°33' E 009°59'0 0.0
2017-Sep-21 14:28N 53°33' E 009°59'0 0.0
2017-Sep-21 13:58N 53°33' E 009°59'0 0.1
2017-Sep-21 13:28N 53°33' E 009°59'0 0.0
2017-Sep-21 12:58N 53°33' E 009°59'0 0.0
2017-Sep-21 12:28N 53°33' E 009°59'0 0.0
2017-Sep-21 11:58N 53°33' E 009°59'0 0.0
2017-Sep-21 11:28N 53°33' E 009°59'0 0.0
2017-Sep-21 10:58N 53°33' E 009°59'0 0.0
2017-Sep-21 10:28N 53°33' E 009°59'0 0.0
2017-Sep-21 09:58N 53°33' E 009°59'0 0.0
2017-Sep-21 09:28N 53°33' E 009°59'0 0.0
2017-Sep-21 08:58N 53°33' E 009°59'0 0.0
2017-Sep-21 08:28N 53°33' E 009°59'0 0.0
2017-Sep-21 07:55N 53°33' E 009°59'0 0.0
2017-Sep-21 07:28N 53°33' E 009°59'0 0.0
2017-Sep-21 06:58N 53°33' E 009°59'0 0.0
2017-Sep-21 06:28N 53°33' E 009°59'0 0.0
2017-Sep-21 05:58N 53°33' E 009°59'0 0.0
2017-Sep-21 05:28N 53°33' E 009°59'0 0.0
2017-Sep-21 04:58N 53°33' E 009°59'0 0.0
2017-Sep-21 04:28N 53°33' E 009°59'0 0.0
2017-Sep-21 03:58N 53°33' E 009°59'0 0.0
2017-Sep-21 03:28N 53°33' E 009°59'0 0.0
2017-Sep-21 02:58N 53°33' E 009°59'0 0.0
2017-Sep-21 02:25N 53°33' E 009°59'0 0.0
2017-Sep-21 01:58N 53°33' E 009°59'0 0.0
2017-Sep-21 01:28N 53°33' E 009°59'0 0.0
2017-Sep-21 00:55N 53°33' E 009°59'0 0.0
2017-Sep-21 00:28N 53°33' E 009°59'0 0.0
2017-Sep-20 23:58N 53°33' E 009°59'0 0.0
2017-Sep-20 23:28N 53°33' E 009°59'0 0.0
2017-Sep-20 22:58N 53°33' E 009°59'0 0.0
2017-Sep-20 22:28N 53°33' E 009°59'0 0.0
2017-Sep-20 21:58N 53°33' E 009°59'0 0.0
2017-Sep-20 21:28N 53°33' E 009°59'0 0.0
2017-Sep-20 20:58N 53°33' E 009°59'0 0.0
2017-Sep-20 20:25N 53°33' E 009°59'0 0.0
2017-Sep-20 19:58N 53°33' E 009°59'0 0.0
2017-Sep-20 19:28N 53°33' E 009°59'0 0.0
2017-Sep-20 18:58N 53°33' E 009°59'0 0.0
2017-Sep-20 18:28N 53°33' E 009°59'0 0.0
2017-Sep-20 17:58N 53°33' E 009°59'0 0.0
2017-Sep-20 17:28N 53°33' E 009°59'0 0.0
2017-Sep-20 16:55N 53°33' E 009°59'0 0.0
2017-Sep-20 16:28N 53°33' E 009°59'0 0.0
2017-Sep-20 15:58N 53°33' E 009°59'0 0.0
2017-Sep-20 15:25N 53°33' E 009°59'0 0.0
2017-Sep-20 14:58N 53°33' E 009°59'0 0.0
2017-Sep-20 13:58N 53°33' E 009°59'0 0.0
2017-Sep-20 13:28N 53°33' E 009°59'0 0.0
2017-Sep-20 12:58N 53°33' E 009°59'0 0.0
2017-Sep-20 12:28N 53°33' E 009°59'0 0.0
2017-Sep-20 11:58N 53°33' E 009°59'0 0.0
2017-Sep-20 11:28N 53°33' E 009°59'0 0.0
2017-Sep-20 10:58N 53°33' E 009°59'0 0.0
2017-Sep-20 10:28N 53°33' E 009°59'0 0.0
2017-Sep-20 09:58N 53°33' E 009°59'0 0.0
2017-Sep-20 09:28N 53°33' E 009°59'0 0.0
2017-Sep-20 08:58N 53°33' E 009°59'0 0.0
2017-Sep-20 08:28N 53°33' E 009°59'0 0.0
2017-Sep-20 07:58N 53°33' E 009°59'0 0.0
2017-Sep-20 07:28N 53°33' E 009°59'0 0.0
2017-Sep-20 06:58N 53°33' E 009°59'0 0.0
2017-Sep-20 06:28N 53°33' E 009°59'0 0.0
2017-Sep-20 05:58N 53°33' E 009°59'0 0.0
2017-Sep-20 05:28N 53°33' E 009°59'0 0.0
2017-Sep-20 04:58N 53°33' E 009°59'0 0.0
2017-Sep-20 04:28N 53°33' E 009°59'0 0.0
2017-Sep-20 03:58N 53°33' E 009°59'0 0.0
2017-Sep-20 03:28N 53°33' E 009°59'0 0.0
2017-Sep-20 02:58N 53°33' E 009°59'0 0.0
2017-Sep-20 02:28N 53°33' E 009°59'0 0.0
2017-Sep-20 01:58N 53°33' E 009°59'0 0.0
2017-Sep-20 01:28N 53°33' E 009°59'0 0.0
2017-Sep-20 00:58N 53°33' E 009°59'0 0.0
2017-Sep-20 00:28N 53°33' E 009°59'0 0.0
2017-Sep-19 23:58N 53°33' E 009°59'0 0.0
2017-Sep-19 23:28N 53°33' E 009°59'0 0.0
2017-Sep-19 22:58N 53°33' E 009°59'0 0.0
2017-Sep-19 22:28N 53°33' E 009°59'0 0.0
2017-Sep-19 21:58N 53°33' E 009°59'0 0.0
2017-Sep-19 21:28N 53°33' E 009°59'0 0.0
2017-Sep-19 20:55N 53°33' E 009°59'0 0.0
2017-Sep-19 20:28N 53°33' E 009°59'0 0.0
2017-Sep-19 20:00N 53°33' E 009°59'2 3.4
2017-Sep-19 19:30N 53°32' E 009°56'2 3.6
2017-Sep-19 19:00N 53°32' E 009°53'2 3.7
2017-Sep-19 18:30N 53°33' E 009°50'1 3.0
2017-Sep-19 18:00N 53°33' E 009°52'3 5.9
2017-Sep-19 17:30N 53°33' E 009°57'1 1.7
2017-Sep-19 16:58N 53°33' E 009°59'0 0.0
2017-Sep-19 16:25N 53°33' E 009°59'0 0.0
2017-Sep-19 15:58N 53°33' E 009°59'0 0.0
2017-Sep-19 15:28N 53°33' E 009°59'0 0.0
2017-Sep-19 14:58N 53°33' E 009°59'0 0.0
2017-Sep-19 14:28N 53°33' E 009°59'0 0.0
2017-Sep-19 13:58N 53°33' E 009°59'0 0.1
2017-Sep-19 13:28N 53°33' E 009°59'0 0.0
2017-Sep-19 12:58N 53°33' E 009°59'0 0.0
2017-Sep-19 12:28N 53°33' E 009°59'0 0.0
2017-Sep-19 11:58N 53°33' E 009°59'0 0.0
2017-Sep-19 11:28N 53°33' E 009°59'0 0.0
2017-Sep-19 10:58N 53°33' E 009°59'0 0.0
2017-Sep-19 10:28N 53°33' E 009°59'0 0.0
2017-Sep-19 09:58N 53°33' E 009°59'0 0.0
2017-Sep-19 09:28N 53°33' E 009°59'0 0.0
2017-Sep-19 08:58N 53°33' E 009°59'0 0.0
2017-Sep-19 08:25N 53°33' E 009°59'0 0.0
2017-Sep-19 07:55N 53°33' E 009°59'0 0.0
2017-Sep-19 07:28N 53°33' E 009°59'0 0.0
2017-Sep-19 06:58N 53°33' E 009°59'0 0.0
2017-Sep-19 06:28N 53°33' E 009°59'0 0.0
2017-Sep-19 05:58N 53°33' E 009°59'0 0.0
2017-Sep-19 05:25N 53°33' E 009°59'0 0.0
2017-Sep-19 04:58N 53°33' E 009°59'0 0.0
2017-Sep-19 04:28N 53°33' E 009°59'0 0.0
2017-Sep-19 03:58N 53°33' E 009°59'0 0.0
2017-Sep-19 03:28N 53°33' E 009°59'0 0.0
2017-Sep-19 02:58N 53°33' E 009°59'0 0.0
2017-Sep-19 02:28N 53°33' E 009°59'0 0.0
2017-Sep-19 01:58N 53°33' E 009°59'0 0.0
2017-Sep-19 01:29N 53°33' E 009°59'0 0.0
2017-Sep-19 00:59N 53°33' E 009°59'0 0.0
2017-Sep-19 00:29N 53°33' E 009°59'0 0.0
2017-Sep-18 23:59N 53°33' E 009°59'0 0.0
2017-Sep-18 23:29N 53°33' E 009°59'0 0.0
2017-Sep-18 22:59N 53°33' E 009°59'0 0.0
2017-Sep-18 22:29N 53°33' E 009°59'0 0.0
2017-Sep-18 21:59N 53°33' E 009°59'0 0.0
2017-Sep-18 21:29N 53°33' E 009°59'0 0.0
2017-Sep-18 20:59N 53°33' E 009°59'0 0.0
2017-Sep-18 20:29N 53°33' E 009°59'0 0.0
2017-Sep-18 19:59N 53°33' E 009°59'0 0.0
2017-Sep-18 19:29N 53°33' E 009°59'0 0.0
2017-Sep-18 18:59N 53°33' E 009°59'0 0.0
2017-Sep-18 18:29N 53°33' E 009°59'0 0.0
2017-Sep-18 17:59N 53°33' E 009°59'0 0.0
2017-Sep-18 17:29N 53°33' E 009°59'0 0.0
2017-Sep-18 16:56N 53°33' E 009°59'0 0.0
2017-Sep-18 16:29N 53°33' E 009°59'0 0.0
2017-Sep-18 15:59N 53°33' E 009°59'0 0.0
2017-Sep-18 15:29N 53°33' E 009°59'0 0.0
2017-Sep-18 14:59N 53°33' E 009°59'0 0.0
2017-Sep-18 14:29N 53°33' E 009°59'0 0.0
2017-Sep-18 13:59N 53°33' E 009°59'0 0.0
2017-Sep-18 13:29N 53°33' E 009°59'0 0.0
2017-Sep-18 12:59N 53°33' E 009°59'0 0.0
2017-Sep-18 12:29N 53°33' E 009°59'0 0.0
2017-Sep-18 11:59N 53°33' E 009°59'0 0.0
2017-Sep-18 11:29N 53°33' E 009°59'0 0.0
2017-Sep-18 10:53N 53°33' E 009°59'0 0.0
2017-Sep-18 10:29N 53°33' E 009°59'0 0.0
2017-Sep-18 09:59N 53°33' E 009°59'0 0.0
2017-Sep-18 09:29N 53°33' E 009°59'0 0.0
2017-Sep-18 08:56N 53°33' E 009°59'0 0.0
2017-Sep-18 08:29N 53°33' E 009°59'0 0.0
2017-Sep-18 07:59N 53°33' E 009°59'0 0.0
2017-Sep-18 07:29N 53°33' E 009°59'0 0.0
2017-Sep-18 06:59N 53°33' E 009°59'0 0.0
2017-Sep-18 06:29N 53°33' E 009°59'0 0.0
2017-Sep-18 05:59N 53°33' E 009°59'0 0.0
2017-Sep-18 05:29N 53°33' E 009°59'0 0.0
2017-Sep-18 04:59N 53°33' E 009°59'0 0.0
2017-Sep-18 04:29N 53°33' E 009°59'0 0.0
2017-Sep-18 03:56N 53°33' E 009°59'0 0.0
2017-Sep-18 03:26N 53°33' E 009°59'0 0.0
2017-Sep-18 02:59N 53°33' E 009°59'0 0.0
2017-Sep-18 02:29N 53°33' E 009°59'0 0.0
2017-Sep-18 01:59N 53°33' E 009°59'0 0.0
2017-Sep-18 01:29N 53°33' E 009°59'0 0.0
2017-Sep-18 00:59N 53°33' E 009°59'0 0.0
2017-Sep-18 00:29N 53°33' E 009°59'0 0.0
2017-Sep-17 23:59N 53°33' E 009°59'0 0.0
2017-Sep-17 23:29N 53°33' E 009°59'0 0.0
2017-Sep-17 22:56N 53°33' E 009°59'0 0.0
2017-Sep-17 22:29N 53°33' E 009°59'0 0.0
2017-Sep-17 21:59N 53°33' E 009°59'0 0.0
2017-Sep-17 21:29N 53°33' E 009°59'0 0.1
2017-Sep-17 20:59N 53°33' E 009°59'0 0.1
2017-Sep-17 20:29N 53°33' E 009°59'0 0.0
2017-Sep-17 19:59N 53°33' E 009°59'0 0.0
2017-Sep-17 19:29N 53°33' E 009°59'0 0.0
2017-Sep-17 18:56N 53°33' E 009°59'0 0.0
2017-Sep-17 18:29N 53°33' E 009°59'0 0.0
2017-Sep-17 17:59N 53°33' E 009°59'0 0.0
2017-Sep-17 17:29N 53°33' E 009°59'0 0.0
2017-Sep-17 16:59N 53°33' E 009°59'0 0.0
2017-Sep-17 16:29N 53°33' E 009°59'0 0.0
2017-Sep-17 15:59N 53°33' E 009°59'0 0.0
2017-Sep-17 15:29N 53°33' E 009°59'0 0.0
2017-Sep-17 14:59N 53°33' E 009°59'0 0.0
2017-Sep-17 14:29N 53°33' E 009°59'0 0.0
2017-Sep-17 13:59N 53°33' E 009°59'0 0.0
2017-Sep-17 13:30N 53°33' E 009°59'0 0.1
2017-Sep-17 13:00N 53°33' E 009°59'1 2.8
2017-Sep-17 12:31N 53°32' E 009°57'3 6.5
2017-Sep-17 12:00N 53°33' E 009°51'3 6.6
2017-Sep-17 11:30N 53°34' E 009°46'1 2.8
2017-Sep-17 11:00N 53°34' E 009°43'2 4.8
2017-Sep-17 10:30N 53°33' E 009°47'2 5.0
2017-Sep-17 10:00N 53°33' E 009°51'2 4.9
2017-Sep-17 09:30N 53°33' E 009°56'2 3.9
2017-Sep-17 09:00N 53°33' E 009°59'0 0.0
2017-Sep-17 08:30N 53°33' E 009°59'0 0.0
2017-Sep-16 20:48N 53°33' E 009°59'0 0.6
2017-Sep-16 20:30N 53°32' E 009°59'3 5.4
2017-Sep-16 20:00N 53°32' E 009°54'3 6.6
2017-Sep-16 19:30N 53°33' E 009°49'3 6.0
2017-Sep-16 19:00N 53°34' E 009°44'0 0.3
2017-Sep-16 18:30N 53°34' E 009°44'3 6.9
2017-Sep-16 18:00N 53°33' E 009°50'3 7.0
2017-Sep-16 17:30N 53°33' E 009°55'2 4.2
2017-Sep-16 17:00N 53°33' E 009°59'0 0.0
2017-Sep-16 16:30N 53°33' E 009°59'0 0.0
2017-Sep-16 16:00N 53°33' E 009°59'0 0.0
2017-Sep-16 15:30N 53°33' E 009°59'1 2.1
2017-Sep-16 15:00N 53°33' E 009°57'3 6.4
2017-Sep-16 14:30N 53°33' E 009°52'3 6.0
2017-Sep-16 14:00N 53°33' E 009°47'3 5.6
2017-Sep-16 13:30N 53°34' E 009°42'0 0.2
2017-Sep-16 13:00N 53°34' E 009°42'0 0.0
2017-Sep-16 12:30N 53°34' E 009°42'0 0.7
2017-Sep-16 12:00N 53°34' E 009°42'3 5.3
2017-Sep-16 11:30N 53°35' E 009°37'0 0.7
2017-Sep-16 11:01N 53°35' E 009°38'2 3.1
2017-Sep-16 10:30N 53°34' E 009°40'3 5.4
2017-Sep-16 10:00N 53°34' E 009°45'2 5.0
2017-Sep-16 09:30N 53°33' E 009°49'2 4.9
2017-Sep-16 09:00N 53°33' E 009°53'2 4.9
2017-Sep-16 08:30N 53°33' E 009°57'1 2.1
2017-Sep-16 07:59N 53°33' E 009°59'0 0.0
2017-Sep-16 07:29N 53°33' E 009°59'0 0.2
2017-Sep-16 06:59N 53°33' E 009°59'0 0.0
2017-Sep-16 06:29N 53°33' E 009°59'0 0.0
2017-Sep-16 05:59N 53°33' E 009°59'0 0.0
2017-Sep-16 05:29N 53°33' E 009°59'0 0.0
2017-Sep-16 04:59N 53°33' E 009°59'0 0.0
2017-Sep-16 04:29N 53°33' E 009°59'0 0.0
2017-Sep-16 03:59N 53°33' E 009°59'0 0.0
2017-Sep-16 03:29N 53°33' E 009°59'0 0.0
2017-Sep-16 02:59N 53°33' E 009°59'0 0.0
2017-Sep-16 02:29N 53°33' E 009°59'0 0.0
2017-Sep-16 01:59N 53°33' E 009°59'0 0.0
2017-Sep-16 01:29N 53°33' E 009°59'0 0.0
2017-Sep-16 00:59N 53°33' E 009°59'0 0.0
2017-Sep-16 00:29N 53°33' E 009°59'0 0.0
2017-Sep-15 23:59N 53°33' E 009°59'0 0.0
2017-Sep-15 23:29N 53°33' E 009°59'0 0.0
2017-Sep-15 22:59N 53°33' E 009°59'0 0.0
2017-Sep-15 22:29N 53°33' E 009°59'0 0.0
2017-Sep-15 21:59N 53°33' E 009°59'0 0.0
2017-Sep-15 21:29N 53°33' E 009°59'0 0.0
2017-Sep-15 20:59N 53°33' E 009°59'0 0.0
2017-Sep-15 20:26N 53°33' E 009°59'0 0.0
2017-Sep-15 19:59N 53°33' E 009°59'0 0.0
2017-Sep-15 19:29N 53°33' E 009°59'0 0.0
2017-Sep-15 18:59N 53°33' E 009°59'0 0.0
2017-Sep-15 18:29N 53°33' E 009°59'0 0.0
2017-Sep-15 17:59N 53°33' E 009°59'0 0.0
2017-Sep-15 17:29N 53°33' E 009°59'0 0.0
2017-Sep-15 16:59N 53°33' E 009°59'0 0.0
2017-Sep-15 16:29N 53°33' E 009°59'0 0.0
2017-Sep-15 15:59N 53°33' E 009°59'0 0.0
2017-Sep-15 15:29N 53°33' E 009°59'0 0.0
2017-Sep-15 14:59N 53°33' E 009°59'0 0.0
2017-Sep-15 14:29N 53°33' E 009°59'0 0.0
2017-Sep-15 13:59N 53°33' E 009°59'0 0.0
2017-Sep-15 13:29N 53°33' E 009°59'0 0.0
2017-Sep-15 12:59N 53°33' E 009°59'0 0.0
2017-Sep-15 12:29N 53°33' E 009°59'0 0.0
2017-Sep-15 11:59N 53°33' E 009°59'0 0.0
2017-Sep-15 11:29N 53°33' E 009°59'0 0.0
2017-Sep-15 10:59N 53°33' E 009°59'0 0.0
2017-Sep-15 10:29N 53°33' E 009°59'0 0.0
2017-Sep-15 09:59N 53°33' E 009°59'0 0.0
2017-Sep-15 09:26N 53°33' E 009°59'0 0.0
2017-Sep-15 08:59N 53°33' E 009°59'0 0.0
2017-Sep-15 08:29N 53°33' E 009°59'0 0.0
2017-Sep-15 07:56N 53°33' E 009°59'0 0.0
2017-Sep-15 07:29N 53°33' E 009°59'0 0.0
2017-Sep-15 06:59N 53°33' E 009°59'0 0.0
2017-Sep-15 06:29N 53°33' E 009°59'0 0.0
2017-Sep-15 05:59N 53°33' E 009°59'0 0.0
2017-Sep-15 05:29N 53°33' E 009°59'0 0.0
2017-Sep-15 04:59N 53°33' E 009°59'0 0.0
2017-Sep-15 04:29N 53°33' E 009°59'0 0.0
2017-Sep-15 03:59N 53°33' E 009°59'0 0.0
2017-Sep-15 03:29N 53°33' E 009°59'0 0.0
2017-Sep-15 02:59N 53°33' E 009°59'0 0.0
2017-Sep-15 02:29N 53°33' E 009°59'0 0.0
2017-Sep-15 01:56N 53°33' E 009°59'0 0.0
2017-Sep-15 01:29N 53°33' E 009°59'0 0.0
2017-Sep-15 00:59N 53°33' E 009°59'0 0.0
2017-Sep-15 00:29N 53°33' E 009°59'0 0.0
2017-Sep-14 23:59N 53°33' E 009°59'0 0.0
2017-Sep-14 23:29N 53°33' E 009°59'0 0.0
2017-Sep-14 22:59N 53°33' E 009°59'0 0.0
2017-Sep-14 22:29N 53°33' E 009°59'0 0.0
2017-Sep-14 21:59N 53°33' E 009°59'0 0.1
2017-Sep-14 21:30N 53°33' E 009°59'1 2.9
2017-Sep-14 21:01N 53°32' E 009°56'2 4.6
2017-Sep-14 20:30N 53°32' E 009°53'2 4.7
2017-Sep-14 20:00N 53°33' E 009°49'2 4.0
2017-Sep-14 19:30N 53°34' E 009°46'3 5.2
2017-Sep-14 19:01N 53°33' E 009°50'3 5.2
2017-Sep-14 18:30N 53°33' E 009°54'3 5.0
2017-Sep-14 18:00N 53°33' E 009°58'0 0.6
2017-Sep-14 17:29N 53°33' E 009°59'0 0.0
2017-Sep-14 16:59N 53°33' E 009°59'0 0.0
2017-Sep-14 16:30N 53°33' E 009°59'0 0.0
2017-Sep-14 15:59N 53°33' E 009°59'0 0.0
2017-Sep-14 15:29N 53°33' E 009°59'0 0.0
2017-Sep-14 14:59N 53°33' E 009°59'0 0.2
2017-Sep-14 14:28N 53°33' E 009°59'0 0.0
2017-Sep-14 13:58N 53°33' E 009°59'0 0.0
2017-Sep-14 13:28N 53°33' E 009°59'0 0.0
2017-Sep-14 12:58N 53°33' E 009°59'0 0.0
2017-Sep-14 12:28N 53°33' E 009°59'0 0.0
2017-Sep-14 11:58N 53°33' E 009°59'0 0.0
2017-Sep-14 11:28N 53°33' E 009°59'0 0.0
2017-Sep-14 10:58N 53°33' E 009°59'0 0.0
2017-Sep-14 10:28N 53°33' E 009°59'0 0.0
2017-Sep-14 09:58N 53°33' E 009°59'0 0.0
2017-Sep-14 09:28N 53°33' E 009°59'0 0.0
2017-Sep-14 08:58N 53°33' E 009°59'0 0.0
2017-Sep-14 08:28N 53°33' E 009°59'0 0.0
2017-Sep-14 07:58N 53°33' E 009°59'0 0.0
2017-Sep-14 07:28N 53°33' E 009°59'0 0.0
2017-Sep-14 06:58N 53°33' E 009°59'0 0.0
2017-Sep-14 06:28N 53°33' E 009°59'0 0.0
2017-Sep-14 05:58N 53°33' E 009°59'0 0.0
2017-Sep-14 05:28N 53°33' E 009°59'0 0.0
2017-Sep-14 04:58N 53°33' E 009°59'0 0.0
2017-Sep-14 04:28N 53°33' E 009°59'0 0.0
2017-Sep-14 03:58N 53°33' E 009°59'0 0.0
2017-Sep-14 03:28N 53°33' E 009°59'0 0.0
2017-Sep-14 02:58N 53°33' E 009°59'0 0.0
2017-Sep-14 02:28N 53°33' E 009°59'0 0.0
2017-Sep-14 01:58N 53°33' E 009°59'0 0.0
2017-Sep-14 01:28N 53°33' E 009°59'0 0.0
2017-Sep-14 00:58N 53°33' E 009°59'0 0.0
2017-Sep-14 00:28N 53°33' E 009°59'0 0.0
2017-Sep-13 23:58N 53°33' E 009°59'0 0.0
2017-Sep-13 23:28N 53°33' E 009°59'0 0.0
2017-Sep-13 22:58N 53°33' E 009°59'0 0.0
2017-Sep-13 22:28N 53°33' E 009°59'0 0.0
2017-Sep-13 21:58N 53°33' E 009°59'0 0.0
2017-Sep-13 21:28N 53°33' E 009°59'0 0.0
2017-Sep-13 20:58N 53°33' E 009°59'0 0.0
2017-Sep-13 20:28N 53°33' E 009°59'0 0.0
2017-Sep-13 19:58N 53°33' E 009°59'0 0.0
2017-Sep-13 19:28N 53°33' E 009°59'0 0.0
2017-Sep-13 18:58N 53°33' E 009°59'0 0.0
2017-Sep-13 18:28N 53°33' E 009°59'0 0.0
2017-Sep-13 17:58N 53°33' E 009°59'0 0.0
2017-Sep-13 17:28N 53°33' E 009°59'0 0.0
2017-Sep-13 16:58N 53°33' E 009°59'0 0.0
2017-Sep-13 16:28N 53°33' E 009°59'0 0.0
2017-Sep-13 15:58N 53°33' E 009°59'0 0.0
2017-Sep-13 15:28N 53°33' E 009°59'0 0.0
2017-Sep-13 14:58N 53°33' E 009°59'0 0.0
2017-Sep-13 14:28N 53°33' E 009°59'0 0.0
2017-Sep-13 13:58N 53°33' E 009°59'0 0.0
2017-Sep-13 13:28N 53°33' E 009°59'0 0.0
2017-Sep-13 12:58N 53°33' E 009°59'0 0.0
2017-Sep-13 12:28N 53°33' E 009°59'0 0.0
2017-Sep-13 11:58N 53°33' E 009°59'0 0.0
2017-Sep-13 11:28N 53°33' E 009°59'0 0.0
2017-Sep-13 10:58N 53°33' E 009°59'0 0.0
2017-Sep-13 10:28N 53°33' E 009°59'0 0.0
2017-Sep-13 09:58N 53°33' E 009°59'0 0.0
2017-Sep-13 09:28N 53°33' E 009°59'0 0.0
2017-Sep-13 08:58N 53°33' E 009°59'0 0.0
2017-Sep-13 08:28N 53°33' E 009°59'0 0.0
2017-Sep-13 07:58N 53°33' E 009°59'0 0.0
2017-Sep-13 07:28N 53°33' E 009°59'0 0.0
2017-Sep-13 06:58N 53°33' E 009°59'0 0.0
2017-Sep-13 06:28N 53°33' E 009°59'0 0.0
2017-Sep-13 05:58N 53°33' E 009°59'0 0.0
2017-Sep-13 05:28N 53°33' E 009°59'0 0.0
2017-Sep-13 04:58N 53°33' E 009°59'0 0.0
2017-Sep-13 04:28N 53°33' E 009°59'0 0.0
2017-Sep-13 03:58N 53°33' E 009°59'0 0.0
2017-Sep-13 03:28N 53°33' E 009°59'0 0.0
2017-Sep-13 02:58N 53°33' E 009°59'0 0.0
2017-Sep-13 02:28N 53°33' E 009°59'0 0.0
2017-Sep-13 01:58N 53°33' E 009°59'0 0.0
2017-Sep-13 01:28N 53°33' E 009°59'0 0.0
2017-Sep-13 00:58N 53°33' E 009°59'0 0.0
2017-Sep-13 00:28N 53°33' E 009°59'0 0.0
2017-Sep-12 23:58N 53°33' E 009°59'0 0.0
2017-Sep-12 23:28N 53°33' E 009°59'0 0.0
2017-Sep-12 22:58N 53°33' E 009°59'0 0.0
2017-Sep-12 22:28N 53°33' E 009°59'0 0.0
2017-Sep-12 21:58N 53°33' E 009°59'0 0.0
2017-Sep-12 21:28N 53°33' E 009°59'0 0.0
2017-Sep-12 20:58N 53°33' E 009°59'0 0.0
2017-Sep-12 20:30N 53°33' E 009°59'0 0.1
2017-Sep-12 20:01N 53°33' E 009°59'1 2.9
2017-Sep-12 19:30N 53°32' E 009°56'3 6.3
2017-Sep-12 19:00N 53°33' E 009°51'2 3.9
2017-Sep-12 18:30N 53°33' E 009°48'0 0.3
2017-Sep-12 18:01N 53°33' E 009°48'2 4.3
2017-Sep-12 17:31N 53°33' E 009°52'2 4.8
2017-Sep-12 17:00N 53°33' E 009°56'2 3.7
2017-Sep-12 16:29N 53°33' E 009°59'0 0.0
2017-Sep-12 15:53N 53°33' E 009°59'0 0.0
2017-Sep-12 15:29N 53°33' E 009°59'0 0.0
2017-Sep-12 14:59N 53°33' E 009°59'0 0.0
2017-Sep-12 14:29N 53°33' E 009°59'0 0.0
2017-Sep-12 13:59N 53°33' E 009°59'0 0.2
2017-Sep-12 13:28N 53°33' E 009°59'0 0.0
2017-Sep-12 12:59N 53°33' E 009°59'0 0.0
2017-Sep-12 12:28N 53°33' E 009°59'0 0.0
2017-Sep-12 11:58N 53°33' E 009°59'0 0.0
2017-Sep-12 11:29N 53°33' E 009°59'0 0.0
2017-Sep-12 10:58N 53°33' E 009°59'0 0.0
2017-Sep-12 10:28N 53°33' E 009°59'0 0.0
2017-Sep-12 09:58N 53°33' E 009°59'0 0.0
2017-Sep-12 09:29N 53°33' E 009°59'0 0.0
2017-Sep-12 08:59N 53°33' E 009°59'0 0.0
2017-Sep-12 08:29N 53°33' E 009°59'0 0.0
2017-Sep-12 07:58N 53°33' E 009°59'0 0.0
2017-Sep-12 07:28N 53°33' E 009°59'0 0.0
2017-Sep-12 06:58N 53°33' E 009°59'0 0.0
2017-Sep-12 06:28N 53°33' E 009°59'0 0.0
2017-Sep-12 05:58N 53°33' E 009°59'0 0.0
2017-Sep-12 05:28N 53°33' E 009°59'0 0.0
2017-Sep-12 04:58N 53°33' E 009°59'0 0.0
2017-Sep-12 04:28N 53°33' E 009°59'0 0.0
2017-Sep-12 03:58N 53°33' E 009°59'0 0.0
2017-Sep-12 03:28N 53°33' E 009°59'0 0.0
2017-Sep-12 02:59N 53°33' E 009°59'0 0.0
2017-Sep-12 02:29N 53°33' E 009°59'  
Track history (hours):
 
Tides and Currents Weather Stations Pressure Air Temp Water Temp Dewpoint Dewpoint Depression Visibility Wind Speed Wind Dir Waves Ship Positions

Mare Frisium (Netherlands)

Ship's website: http://www.tallship-company.com/mare-frisium-2/

Last reported at 2017-Sep-22 01:59 UTC. Time now 2017-Sep-22 15:30 UTC.
Position N 53°33' E 009°59'.

Length 50 m; draft 2.7 m.

Type: Sailing vessel. MMSI: 244596000.

Date/timePositionNaut miles runAvg speedWind from/ knotsBaromVisibWave heightAir tempDewpointWater temp
2017-Sep-22 01:59N 53°33' E 009°59'0 0.0
2017-Sep-22 01:29N 53°33' E 009°59'0 0.0
2017-Sep-22 00:59N 53°33' E 009°59'0 0.0
2017-Sep-22 00:29N 53°33' E 009°59'0 0.0
2017-Sep-21 23:59N 53°33' E 009°59'0 0.0
2017-Sep-21 23:29N 53°33' E 009°59'0 0.0
2017-Sep-21 22:59N 53°33' E 009°59'0 0.0
2017-Sep-21 22:29N 53°33' E 009°59'0 0.0
2017-Sep-21 21:59N 53°33' E 009°59'0 0.0
2017-Sep-21 21:29N 53°33' E 009°59'0 0.0
2017-Sep-21 21:00N 53°33' E 009°59'1 1.3
2017-Sep-21 20:30N 53°33' E 009°58'2 4.3
2017-Sep-21 20:01N 53°32' E 009°54'2 4.7
2017-Sep-21 19:30N 53°33' E 009°50'2 4.1
2017-Sep-21 19:01N 53°33' E 009°47'2 3.8
2017-Sep-21 18:30N 53°34' E 009°44'2 3.1
2017-Sep-21 18:01N 53°34' E 009°46'3 6.4
2017-Sep-21 17:30N 53°33' E 009°52'3 5.6
2017-Sep-21 17:00N 53°33' E 009°56'2 3.1
2017-Sep-21 16:30N 53°33' E 009°59'0 0.0
2017-Sep-21 16:00N 53°33' E 009°59'0 0.0
2017-Sep-21 15:28N 53°33' E 009°59'0 0.0
2017-Sep-21 14:58N 53°33' E 009°59'0 0.0
2017-Sep-21 14:28N 53°33' E 009°59'0 0.0
2017-Sep-21 13:58N 53°33' E 009°59'0 0.1
2017-Sep-21 13:28N 53°33' E 009°59'0 0.0
2017-Sep-21 12:58N 53°33' E 009°59'0 0.0
2017-Sep-21 12:28N 53°33' E 009°59'0 0.0
2017-Sep-21 11:58N 53°33' E 009°59'0 0.0
2017-Sep-21 11:28N 53°33' E 009°59'0 0.0
2017-Sep-21 10:58N 53°33' E 009°59'0 0.0
2017-Sep-21 10:28N 53°33' E 009°59'0 0.0
2017-Sep-21 09:58N 53°33' E 009°59'0 0.0
2017-Sep-21 09:28N 53°33' E 009°59'0 0.0
2017-Sep-21 08:58N 53°33' E 009°59'0 0.0
2017-Sep-21 08:28N 53°33' E 009°59'0 0.0
2017-Sep-21 07:55N 53°33' E 009°59'0 0.0
2017-Sep-21 07:28N 53°33' E 009°59'0 0.0
2017-Sep-21 06:58N 53°33' E 009°59'0 0.0
2017-Sep-21 06:28N 53°33' E 009°59'0 0.0
2017-Sep-21 05:58N 53°33' E 009°59'0 0.0
2017-Sep-21 05:28N 53°33' E 009°59'0 0.0
2017-Sep-21 04:58N 53°33' E 009°59'0 0.0
2017-Sep-21 04:28N 53°33' E 009°59'0 0.0
2017-Sep-21 03:58N 53°33' E 009°59'0 0.0
2017-Sep-21 03:28N 53°33' E 009°59'0 0.0
2017-Sep-21 02:58N 53°33' E 009°59'0 0.0
2017-Sep-21 02:25N 53°33' E 009°59'0 0.0
2017-Sep-21 01:58N 53°33' E 009°59'0 0.0
2017-Sep-21 01:28N 53°33' E 009°59'0 0.0
2017-Sep-21 00:55N 53°33' E 009°59'0 0.0
2017-Sep-21 00:28N 53°33' E 009°59'0 0.0
2017-Sep-20 23:58N 53°33' E 009°59'0 0.0
2017-Sep-20 23:28N 53°33' E 009°59'0 0.0
2017-Sep-20 22:58N 53°33' E 009°59'0 0.0
2017-Sep-20 22:28N 53°33' E 009°59'0 0.0
2017-Sep-20 21:58N 53°33' E 009°59'0 0.0
2017-Sep-20 21:28N 53°33' E 009°59'0 0.0
2017-Sep-20 20:58N 53°33' E 009°59'0 0.0
2017-Sep-20 20:25N 53°33' E 009°59'0 0.0
2017-Sep-20 19:58N 53°33' E 009°59'0 0.0
2017-Sep-20 19:28N 53°33' E 009°59'0 0.0
2017-Sep-20 18:58N 53°33' E 009°59'0 0.0
2017-Sep-20 18:28N 53°33' E 009°59'0 0.0
2017-Sep-20 17:58N 53°33' E 009°59'0 0.0
2017-Sep-20 17:28N 53°33' E 009°59'0 0.0
2017-Sep-20 16:55N 53°33' E 009°59'0 0.0
2017-Sep-20 16:28N 53°33' E 009°59'0 0.0
2017-Sep-20 15:58N 53°33' E 009°59'0 0.0
2017-Sep-20 15:25N 53°33' E 009°59'0 0.0
2017-Sep-20 14:58N 53°33' E 009°59'0 0.0
2017-Sep-20 13:58N 53°33' E 009°59'0 0.0
2017-Sep-20 13:28N 53°33' E 009°59'0 0.0
2017-Sep-20 12:58N 53°33' E 009°59'0 0.0
2017-Sep-20 12:28N 53°33' E 009°59'0 0.0
2017-Sep-20 11:58N 53°33' E 009°59'0 0.0
2017-Sep-20 11:28N 53°33' E 009°59'0 0.0
2017-Sep-20 10:58N 53°33' E 009°59'0 0.0
2017-Sep-20 10:28N 53°33' E 009°59'0 0.0
2017-Sep-20 09:58N 53°33' E 009°59'0 0.0
2017-Sep-20 09:28N 53°33' E 009°59'0 0.0
2017-Sep-20 08:58N 53°33' E 009°59'0 0.0
2017-Sep-20 08:28N 53°33' E 009°59'0 0.0
2017-Sep-20 07:58N 53°33' E 009°59'0 0.0
2017-Sep-20 07:28N 53°33' E 009°59'0 0.0
2017-Sep-20 06:58N 53°33' E 009°59'0 0.0
2017-Sep-20 06:28N 53°33' E 009°59'0 0.0
2017-Sep-20 05:58N 53°33' E 009°59'0 0.0
2017-Sep-20 05:28N 53°33' E 009°59'0 0.0
2017-Sep-20 04:58N 53°33' E 009°59'0 0.0
2017-Sep-20 04:28N 53°33' E 009°59'0 0.0
2017-Sep-20 03:58N 53°33' E 009°59'0 0.0
2017-Sep-20 03:28N 53°33' E 009°59'0 0.0
2017-Sep-20 02:58N 53°33' E 009°59'0 0.0
2017-Sep-20 02:28N 53°33' E 009°59'0 0.0
2017-Sep-20 01:58N 53°33' E 009°59'0 0.0
2017-Sep-20 01:28N 53°33' E 009°59'0 0.0
2017-Sep-20 00:58N 53°33' E 009°59'0 0.0
2017-Sep-20 00:28N 53°33' E 009°59'0 0.0
2017-Sep-19 23:58N 53°33' E 009°59'0 0.0
2017-Sep-19 23:28N 53°33' E 009°59'0 0.0
2017-Sep-19 22:58N 53°33' E 009°59'0 0.0
2017-Sep-19 22:28N 53°33' E 009°59'0 0.0
2017-Sep-19 21:58N 53°33' E 009°59'0 0.0
2017-Sep-19 21:28N 53°33' E 009°59'0 0.0
2017-Sep-19 20:55N 53°33' E 009°59'0 0.0
2017-Sep-19 20:28N 53°33' E 009°59'0 0.0
2017-Sep-19 20:00N 53°33' E 009°59'2 3.4
2017-Sep-19 19:30N 53°32' E 009°56'2 3.6
2017-Sep-19 19:00N 53°32' E 009°53'2 3.7
2017-Sep-19 18:30N 53°33' E 009°50'1 3.0
2017-Sep-19 18:00N 53°33' E 009°52'3 5.9
2017-Sep-19 17:30N 53°33' E 009°57'1 1.7
2017-Sep-19 16:58N 53°33' E 009°59'0 0.0
2017-Sep-19 16:25N 53°33' E 009°59'0 0.0
2017-Sep-19 15:58N 53°33' E 009°59'0 0.0
2017-Sep-19 15:28N 53°33' E 009°59'0 0.0
2017-Sep-19 14:58N 53°33' E 009°59'0 0.0
2017-Sep-19 14:28N 53°33' E 009°59'0 0.0
2017-Sep-19 13:58N 53°33' E 009°59'0 0.1
2017-Sep-19 13:28N 53°33' E 009°59'0 0.0
2017-Sep-19 12:58N 53°33' E 009°59'0 0.0
2017-Sep-19 12:28N 53°33' E 009°59'0 0.0
2017-Sep-19 11:58N 53°33' E 009°59'0 0.0
2017-Sep-19 11:28N 53°33' E 009°59'0 0.0
2017-Sep-19 10:58N 53°33' E 009°59'0 0.0
2017-Sep-19 10:28N 53°33' E 009°59'0 0.0
2017-Sep-19 09:58N 53°33' E 009°59'0 0.0
2017-Sep-19 09:28N 53°33' E 009°59'0 0.0
2017-Sep-19 08:58N 53°33' E 009°59'0 0.0
2017-Sep-19 08:25N 53°33' E 009°59'0 0.0
2017-Sep-19 07:55N 53°33' E 009°59'0 0.0
2017-Sep-19 07:28N 53°33' E 009°59'0 0.0
2017-Sep-19 06:58N 53°33' E 009°59'0 0.0
2017-Sep-19 06:28N 53°33' E 009°59'0 0.0
2017-Sep-19 05:58N 53°33' E 009°59'0 0.0
2017-Sep-19 05:25N 53°33' E 009°59'0 0.0
2017-Sep-19 04:58N 53°33' E 009°59'0 0.0
2017-Sep-19 04:28N 53°33' E 009°59'0 0.0
2017-Sep-19 03:58N 53°33' E 009°59'0 0.0
2017-Sep-19 03:28N 53°33' E 009°59'0 0.0
2017-Sep-19 02:58N 53°33' E 009°59'0 0.0
2017-Sep-19 02:28N 53°33' E 009°59'0 0.0
2017-Sep-19 01:58N 53°33' E 009°59'0 0.0
2017-Sep-19 01:29N 53°33' E 009°59'0 0.0
2017-Sep-19 00:59N 53°33' E 009°59'0 0.0
2017-Sep-19 00:29N 53°33' E 009°59'0 0.0
2017-Sep-18 23:59N 53°33' E 009°59'0 0.0
2017-Sep-18 23:29N 53°33' E 009°59'0 0.0
2017-Sep-18 22:59N 53°33' E 009°59'0 0.0
2017-Sep-18 22:29N 53°33' E 009°59'0 0.0
2017-Sep-18 21:59N 53°33' E 009°59'0 0.0
2017-Sep-18 21:29N 53°33' E 009°59'0 0.0
2017-Sep-18 20:59N 53°33' E 009°59'0 0.0
2017-Sep-18 20:29N 53°33' E 009°59'0 0.0
2017-Sep-18 19:59N 53°33' E 009°59'0 0.0
2017-Sep-18 19:29N 53°33' E 009°59'0 0.0
2017-Sep-18 18:59N 53°33' E 009°59'0 0.0
2017-Sep-18 18:29N 53°33' E 009°59'0 0.0
2017-Sep-18 17:59N 53°33' E 009°59'0 0.0
2017-Sep-18 17:29N 53°33' E 009°59'0 0.0
2017-Sep-18 16:56N 53°33' E 009°59'0 0.0
2017-Sep-18 16:29N 53°33' E 009°59'0 0.0
2017-Sep-18 15:59N 53°33' E 009°59'0 0.0
2017-Sep-18 15:29N 53°33' E 009°59'0 0.0
2017-Sep-18 14:59N 53°33' E 009°59'0 0.0
2017-Sep-18 14:29N 53°33' E 009°59'0 0.0
2017-Sep-18 13:59N 53°33' E 009°59'0 0.0
2017-Sep-18 13:29N 53°33' E 009°59'0 0.0
2017-Sep-18 12:59N 53°33' E 009°59'0 0.0
2017-Sep-18 12:29N 53°33' E 009°59'0 0.0
2017-Sep-18 11:59N 53°33' E 009°59'0 0.0
2017-Sep-18 11:29N 53°33' E 009°59'0 0.0
2017-Sep-18 10:53N 53°33' E 009°59'0 0.0
2017-Sep-18 10:29N 53°33' E 009°59'0 0.0
2017-Sep-18 09:59N 53°33' E 009°59'0 0.0
2017-Sep-18 09:29N 53°33' E 009°59'0 0.0
2017-Sep-18 08:56N 53°33' E 009°59'0 0.0
2017-Sep-18 08:29N 53°33' E 009°59'0 0.0
2017-Sep-18 07:59N 53°33' E 009°59'0 0.0
2017-Sep-18 07:29N 53°33' E 009°59'0 0.0
2017-Sep-18 06:59N 53°33' E 009°59'0 0.0
2017-Sep-18 06:29N 53°33' E 009°59'0 0.0
2017-Sep-18 05:59N 53°33' E 009°59'0 0.0
2017-Sep-18 05:29N 53°33' E 009°59'0 0.0
2017-Sep-18 04:59N 53°33' E 009°59'0 0.0
2017-Sep-18 04:29N 53°33' E 009°59'0 0.0
2017-Sep-18 03:56N 53°33' E 009°59'0 0.0
2017-Sep-18 03:26N 53°33' E 009°59'0 0.0
2017-Sep-18 02:59N 53°33' E 009°59'0 0.0
2017-Sep-18 02:29N 53°33' E 009°59'0 0.0
2017-Sep-18 01:59N 53°33' E 009°59'0 0.0
2017-Sep-18 01:29N 53°33' E 009°59'0 0.0
2017-Sep-18 00:59N 53°33' E 009°59'0 0.0
2017-Sep-18 00:29N 53°33' E 009°59'0 0.0
2017-Sep-17 23:59N 53°33' E 009°59'0 0.0
2017-Sep-17 23:29N 53°33' E 009°59'0 0.0
2017-Sep-17 22:56N 53°33' E 009°59'0 0.0
2017-Sep-17 22:29N 53°33' E 009°59'0 0.0
2017-Sep-17 21:59N 53°33' E 009°59'0 0.0
2017-Sep-17 21:29N 53°33' E 009°59'0 0.1
2017-Sep-17 20:59N 53°33' E 009°59'0 0.1
2017-Sep-17 20:29N 53°33' E 009°59'0 0.0
2017-Sep-17 19:59N 53°33' E 009°59'0 0.0
2017-Sep-17 19:29N 53°33' E 009°59'0 0.0
2017-Sep-17 18:56N 53°33' E 009°59'0 0.0
2017-Sep-17 18:29N 53°33' E 009°59'0 0.0
2017-Sep-17 17:59N 53°33' E 009°59'0 0.0
2017-Sep-17 17:29N 53°33' E 009°59'0 0.0
2017-Sep-17 16:59N 53°33' E 009°59'0 0.0
2017-Sep-17 16:29N 53°33' E 009°59'0 0.0
2017-Sep-17 15:59N 53°33' E 009°59'0 0.0
2017-Sep-17 15:29N 53°33' E 009°59'0 0.0
2017-Sep-17 14:59N 53°33' E 009°59'0 0.0
2017-Sep-17 14:29N 53°33' E 009°59'0 0.0
2017-Sep-17 13:59N 53°33' E 009°59'0 0.0
2017-Sep-17 13:30N 53°33' E 009°59'0 0.1
2017-Sep-17 13:00N 53°33' E 009°59'1 2.8
2017-Sep-17 12:31N 53°32' E 009°57'3 6.5
2017-Sep-17 12:00N 53°33' E 009°51'3 6.6
2017-Sep-17 11:30N 53°34' E 009°46'1 2.8
2017-Sep-17 11:00N 53°34' E 009°43'2 4.8
2017-Sep-17 10:30N 53°33' E 009°47'2 5.0
2017-Sep-17 10:00N 53°33' E 009°51'2 4.9
2017-Sep-17 09:30N 53°33' E 009°56'2 3.9
2017-Sep-17 09:00N 53°33' E 009°59'0 0.0
2017-Sep-17 08:30N 53°33' E 009°59'0 0.0
2017-Sep-16 20:48N 53°33' E 009°59'0 0.6
2017-Sep-16 20:30N 53°32' E 009°59'3 5.4
2017-Sep-16 20:00N 53°32' E 009°54'3 6.6
2017-Sep-16 19:30N 53°33' E 009°49'3 6.0
2017-Sep-16 19:00N 53°34' E 009°44'0 0.3
2017-Sep-16 18:30N 53°34' E 009°44'3 6.9
2017-Sep-16 18:00N 53°33' E 009°50'3 7.0
2017-Sep-16 17:30N 53°33' E 009°55'2 4.2
2017-Sep-16 17:00N 53°33' E 009°59'0 0.0
2017-Sep-16 16:30N 53°33' E 009°59'0 0.0
2017-Sep-16 16:00N 53°33' E 009°59'0 0.0
2017-Sep-16 15:30N 53°33' E 009°59'1 2.1
2017-Sep-16 15:00N 53°33' E 009°57'3 6.4
2017-Sep-16 14:30N 53°33' E 009°52'3 6.0
2017-Sep-16 14:00N 53°33' E 009°47'3 5.6
2017-Sep-16 13:30N 53°34' E 009°42'0 0.2
2017-Sep-16 13:00N 53°34' E 009°42'0 0.0
2017-Sep-16 12:30N 53°34' E 009°42'0 0.7
2017-Sep-16 12:00N 53°34' E 009°42'3 5.3
2017-Sep-16 11:30N 53°35' E 009°37'0 0.7
2017-Sep-16 11:01N 53°35' E 009°38'2 3.1
2017-Sep-16 10:30N 53°34' E 009°40'3 5.4
2017-Sep-16 10:00N 53°34' E 009°45'2 5.0
2017-Sep-16 09:30N 53°33' E 009°49'2 4.9
2017-Sep-16 09:00N 53°33' E 009°53'2 4.9
2017-Sep-16 08:30N 53°33' E 009°57'1 2.1
2017-Sep-16 07:59N 53°33' E 009°59'0 0.0
2017-Sep-16 07:29N 53°33' E 009°59'0 0.2
2017-Sep-16 06:59N 53°33' E 009°59'0 0.0
2017-Sep-16 06:29N 53°33' E 009°59'0 0.0
2017-Sep-16 05:59N 53°33' E 009°59'0 0.0
2017-Sep-16 05:29N 53°33' E 009°59'0 0.0
2017-Sep-16 04:59N 53°33' E 009°59'0 0.0
2017-Sep-16 04:29N 53°33' E 009°59'0 0.0
2017-Sep-16 03:59N 53°33' E 009°59'0 0.0
2017-Sep-16 03:29N 53°33' E 009°59'0 0.0
2017-Sep-16 02:59N 53°33' E 009°59'0 0.0
2017-Sep-16 02:29N 53°33' E 009°59'0 0.0
2017-Sep-16 01:59N 53°33' E 009°59'0 0.0
2017-Sep-16 01:29N 53°33' E 009°59'0 0.0
2017-Sep-16 00:59N 53°33' E 009°59'0 0.0
2017-Sep-16 00:29N 53°33' E 009°59'0 0.0
2017-Sep-15 23:59N 53°33' E 009°59'0 0.0
2017-Sep-15 23:29N 53°33' E 009°59'0 0.0
2017-Sep-15 22:59N 53°33' E 009°59'0 0.0
2017-Sep-15 22:29N 53°33' E 009°59'0 0.0
2017-Sep-15 21:59N 53°33' E 009°59'0 0.0
2017-Sep-15 21:29N 53°33' E 009°59'0 0.0
2017-Sep-15 20:59N 53°33' E 009°59'0 0.0
2017-Sep-15 20:26N 53°33' E 009°59'0 0.0
2017-Sep-15 19:59N 53°33' E 009°59'0 0.0
2017-Sep-15 19:29N 53°33' E 009°59'0 0.0
2017-Sep-15 18:59N 53°33' E 009°59'0 0.0
2017-Sep-15 18:29N 53°33' E 009°59'0 0.0
2017-Sep-15 17:59N 53°33' E 009°59'0 0.0
2017-Sep-15 17:29N 53°33' E 009°59'0 0.0
2017-Sep-15 16:59N 53°33' E 009°59'0 0.0
2017-Sep-15 16:29N 53°33' E 009°59'0 0.0
2017-Sep-15 15:59N 53°33' E 009°59'0 0.0
2017-Sep-15 15:29N 53°33' E 009°59'0 0.0
2017-Sep-15 14:59N 53°33' E 009°59'0 0.0
2017-Sep-15 14:29N 53°33' E 009°59'0 0.0
2017-Sep-15 13:59N 53°33' E 009°59'0 0.0
2017-Sep-15 13:29N 53°33' E 009°59'0 0.0
2017-Sep-15 12:59N 53°33' E 009°59'0 0.0
2017-Sep-15 12:29N 53°33' E 009°59'0 0.0
2017-Sep-15 11:59N 53°33' E 009°59'0 0.0
2017-Sep-15 11:29N 53°33' E 009°59'0 0.0
2017-Sep-15 10:59N 53°33' E 009°59'0 0.0
2017-Sep-15 10:29N 53°33' E 009°59'0 0.0
2017-Sep-15 09:59N 53°33' E 009°59'0 0.0
2017-Sep-15 09:26N 53°33' E 009°59'0 0.0
2017-Sep-15 08:59N 53°33' E 009°59'0 0.0
2017-Sep-15 08:29N 53°33' E 009°59'0 0.0
2017-Sep-15 07:56N 53°33' E 009°59'0 0.0
2017-Sep-15 07:29N 53°33' E 009°59'0 0.0
2017-Sep-15 06:59N 53°33' E 009°59'0 0.0
2017-Sep-15 06:29N 53°33' E 009°59'0 0.0
2017-Sep-15 05:59N 53°33' E 009°59'0 0.0
2017-Sep-15 05:29N 53°33' E 009°59'0 0.0
2017-Sep-15 04:59N 53°33' E 009°59'0 0.0
2017-Sep-15 04:29N 53°33' E 009°59'0 0.0
2017-Sep-15 03:59N 53°33' E 009°59'0 0.0
2017-Sep-15 03:29N 53°33' E 009°59'0 0.0
2017-Sep-15 02:59N 53°33' E 009°59'0 0.0
2017-Sep-15 02:29N 53°33' E 009°59'0 0.0
2017-Sep-15 01:56N 53°33' E 009°59'0 0.0
2017-Sep-15 01:29N 53°33' E 009°59'0 0.0
2017-Sep-15 00:59N 53°33' E 009°59'0 0.0
2017-Sep-15 00:29N 53°33' E 009°59'0 0.0
2017-Sep-14 23:59N 53°33' E 009°59'0 0.0
2017-Sep-14 23:29N 53°33' E 009°59'0 0.0
2017-Sep-14 22:59N 53°33' E 009°59'0 0.0
2017-Sep-14 22:29N 53°33' E 009°59'0 0.0
2017-Sep-14 21:59N 53°33' E 009°59'0 0.1
2017-Sep-14 21:30N 53°33' E 009°59'1 2.9
2017-Sep-14 21:01N 53°32' E 009°56'2 4.6
2017-Sep-14 20:30N 53°32' E 009°53'2 4.7
2017-Sep-14 20:00N 53°33' E 009°49'2 4.0
2017-Sep-14 19:30N 53°34' E 009°46'3 5.2
2017-Sep-14 19:01N 53°33' E 009°50'3 5.2
2017-Sep-14 18:30N 53°33' E 009°54'3 5.0
2017-Sep-14 18:00N 53°33' E 009°58'0 0.6
2017-Sep-14 17:29N 53°33' E 009°59'0 0.0
2017-Sep-14 16:59N 53°33' E 009°59'0 0.0
2017-Sep-14 16:30N 53°33' E 009°59'0 0.0
2017-Sep-14 15:59N 53°33' E 009°59'0 0.0
2017-Sep-14 15:29N 53°33' E 009°59'0 0.0
2017-Sep-14 14:59N 53°33' E 009°59'0 0.2
2017-Sep-14 14:28N 53°33' E 009°59'0 0.0
2017-Sep-14 13:58N 53°33' E 009°59'0 0.0
2017-Sep-14 13:28N 53°33' E 009°59'0 0.0
2017-Sep-14 12:58N 53°33' E 009°59'0 0.0
2017-Sep-14 12:28N 53°33' E 009°59'0 0.0
2017-Sep-14 11:58N 53°33' E 009°59'0 0.0
2017-Sep-14 11:28N 53°33' E 009°59'0 0.0
2017-Sep-14 10:58N 53°33' E 009°59'0 0.0
2017-Sep-14 10:28N 53°33' E 009°59'0 0.0
2017-Sep-14 09:58N 53°33' E 009°59'0 0.0
2017-Sep-14 09:28N 53°33' E 009°59'0 0.0
2017-Sep-14 08:58N 53°33' E 009°59'0 0.0
2017-Sep-14 08:28N 53°33' E 009°59'0 0.0
2017-Sep-14 07:58N 53°33' E 009°59'0 0.0
2017-Sep-14 07:28N 53°33' E 009°59'0 0.0
2017-Sep-14 06:58N 53°33' E 009°59'0 0.0
2017-Sep-14 06:28N 53°33' E 009°59'0 0.0
2017-Sep-14 05:58N 53°33' E 009°59'0 0.0
2017-Sep-14 05:28N 53°33' E 009°59'0 0.0
2017-Sep-14 04:58N 53°33' E 009°59'0 0.0
2017-Sep-14 04:28N 53°33' E 009°59'0 0.0
2017-Sep-14 03:58N 53°33' E 009°59'0 0.0
2017-Sep-14 03:28N 53°33' E 009°59'0 0.0
2017-Sep-14 02:58N 53°33' E 009°59'0 0.0
2017-Sep-14 02:28N 53°33' E 009°59'0 0.0
2017-Sep-14 01:58N 53°33' E 009°59'0 0.0
2017-Sep-14 01:28N 53°33' E 009°59'0 0.0
2017-Sep-14 00:58N 53°33' E 009°59'0 0.0
2017-Sep-14 00:28N 53°33' E 009°59'0 0.0
2017-Sep-13 23:58N 53°33' E 009°59'0 0.0
2017-Sep-13 23:28N 53°33' E 009°59'0 0.0
2017-Sep-13 22:58N 53°33' E 009°59'0 0.0
2017-Sep-13 22:28N 53°33' E 009°59'0 0.0
2017-Sep-13 21:58N 53°33' E 009°59'0 0.0
2017-Sep-13 21:28N 53°33' E 009°59'0 0.0
2017-Sep-13 20:58N 53°33' E 009°59'0 0.0
2017-Sep-13 20:28N 53°33' E 009°59'0 0.0
2017-Sep-13 19:58N 53°33' E 009°59'0 0.0
2017-Sep-13 19:28N 53°33' E 009°59'0 0.0
2017-Sep-13 18:58N 53°33' E 009°59'0 0.0
2017-Sep-13 18:28N 53°33' E 009°59'0 0.0
2017-Sep-13 17:58N 53°33' E 009°59'0 0.0
2017-Sep-13 17:28N 53°33' E 009°59'0 0.0
2017-Sep-13 16:58N 53°33' E 009°59'0 0.0
2017-Sep-13 16:28N 53°33' E 009°59'0 0.0
2017-Sep-13 15:58N 53°33' E 009°59'0 0.0
2017-Sep-13 15:28N 53°33' E 009°59'0 0.0
2017-Sep-13 14:58N 53°33' E 009°59'0 0.0
2017-Sep-13 14:28N 53°33' E 009°59'0 0.0
2017-Sep-13 13:58N 53°33' E 009°59'0 0.0
2017-Sep-13 13:28N 53°33' E 009°59'0 0.0
2017-Sep-13 12:58N 53°33' E 009°59'0 0.0
2017-Sep-13 12:28N 53°33' E 009°59'0 0.0
2017-Sep-13 11:58N 53°33' E 009°59'0 0.0
2017-Sep-13 11:28N 53°33' E 009°59'0 0.0
2017-Sep-13 10:58N 53°33' E 009°59'0 0.0
2017-Sep-13 10:28N 53°33' E 009°59'0 0.0
2017-Sep-13 09:58N 53°33' E 009°59'0 0.0
2017-Sep-13 09:28N 53°33' E 009°59'0 0.0
2017-Sep-13 08:58N 53°33' E 009°59'0 0.0
2017-Sep-13 08:28N 53°33' E 009°59'0 0.0
2017-Sep-13 07:58N 53°33' E 009°59'0 0.0
2017-Sep-13 07:28N 53°33' E 009°59'0 0.0
2017-Sep-13 06:58N 53°33' E 009°59'0 0.0
2017-Sep-13 06:28N 53°33' E 009°59'0 0.0
2017-Sep-13 05:58N 53°33' E 009°59'0 0.0
2017-Sep-13 05:28N 53°33' E 009°59'0 0.0
2017-Sep-13 04:58N 53°33' E 009°59'0 0.0
2017-Sep-13 04:28N 53°33' E 009°59'0 0.0
2017-Sep-13 03:58N 53°33' E 009°59'0 0.0
2017-Sep-13 03:28N 53°33' E 009°59'0 0.0
2017-Sep-13 02:58N 53°33' E 009°59'0 0.0
2017-Sep-13 02:28N 53°33' E 009°59'0 0.0
2017-Sep-13 01:58N 53°33' E 009°59'0 0.0
2017-Sep-13 01:28N 53°33' E 009°59'0 0.0
2017-Sep-13 00:58N 53°33' E 009°59'0 0.0
2017-Sep-13 00:28N 53°33' E 009°59'0 0.0
2017-Sep-12 23:58N 53°33' E 009°59'0 0.0
2017-Sep-12 23:28N 53°33' E 009°59'0 0.0
2017-Sep-12 22:58N 53°33' E 009°59'0 0.0
2017-Sep-12 22:28N 53°33' E 009°59'0 0.0
2017-Sep-12 21:58N 53°33' E 009°59'0 0.0
2017-Sep-12 21:28N 53°33' E 009°59'0 0.0
2017-Sep-12 20:58N 53°33' E 009°59'0 0.0
2017-Sep-12 20:30N 53°33' E 009°59'0 0.1
2017-Sep-12 20:01N 53°33' E 009°59'1 2.9
2017-Sep-12 19:30N 53°32' E 009°56'3 6.3
2017-Sep-12 19:00N 53°33' E 009°51'2 3.9
2017-Sep-12 18:30N 53°33' E 009°48'0 0.3
2017-Sep-12 18:01N 53°33' E 009°48'2 4.3
2017-Sep-12 17:31N 53°33' E 009°52'2 4.8
2017-Sep-12 17:00N 53°33' E 009°56'2 3.7
2017-Sep-12 16:29N 53°33' E 009°59'0 0.0
2017-Sep-12 15:53N 53°33' E 009°59'0 0.0
2017-Sep-12 15:29N 53°33' E 009°59'0 0.0
2017-Sep-12 14:59N 53°33' E 009°59'0 0.0
2017-Sep-12 14:29N 53°33' E 009°59'0 0.0
2017-Sep-12 13:59N 53°33' E 009°59'0 0.2
2017-Sep-12 13:28N 53°33' E 009°59'0 0.0
2017-Sep-12 12:59N 53°33' E 009°59'0 0.0
2017-Sep-12 12:28N 53°33' E 009°59'0 0.0
2017-Sep-12 11:58N 53°33' E 009°59'0 0.0
2017-Sep-12 11:29N 53°33' E 009°59'0 0.0
2017-Sep-12 10:58N 53°33' E 009°59'0 0.0
2017-Sep-12 10:28N 53°33' E 009°59'0 0.0
2017-Sep-12 09:58N 53°33' E 009°59'0 0.0
2017-Sep-12 09:29N 53°33' E 009°59'0 0.0
2017-Sep-12 08:59N 53°33' E 009°59'0 0.0
2017-Sep-12 08:29N 53°33' E 009°59'0 0.0
2017-Sep-12 07:58N 53°33' E 009°59'0 0.0
2017-Sep-12 07:28N 53°33' E 009°59'0 0.0
2017-Sep-12 06:58N 53°33' E 009°59'0 0.0
2017-Sep-12 06:28N 53°33' E 009°59'0 0.0
2017-Sep-12 05:58N 53°33' E 009°59'0 0.0
2017-Sep-12 05:28N 53°33' E 009°59'0 0.0
2017-Sep-12 04:58N 53°33' E 009°59'0 0.0
2017-Sep-12 04:28N 53°33' E 009°59'0 0.0
2017-Sep-12 03:58N 53°33' E 009°59'0 0.0
2017-Sep-12 03:28N 53°33' E 009°59'0 0.0
2017-Sep-12 02:59N 53°33' E 009°59'0 0.0
2017-Sep-12 02:29N 53°33' E 009°59'  

Dump ship's entire track history